Radiance Of The Seas — C6SE7 — position and weather

sailwx.info

Track history (hours):
 
Tides and Currents Weather Stations Pressure Air Temp Water Temp Dewpoint Dewpoint Depression Visibility Wind Speed Wind Dir Waves Ship Positions

Radiance Of The Seas

Operator: Royal Caribbean Cruises Ltd

Last reported at 2015-Jul-30 06:24 UTC. Time now 2015-Jul-30 22:55 UTC.
Position N 58°19' W 136°09'.

Type: Passenger vessel. MMSI: 311319000.

Date/timePositionNaut miles runAvg speedWind from/ knotsBaromVisibWave heightAir tempDewpointWater temp
2015-Jul-30 06:24N 58°19' W 136°09'1821.2
2015-Jul-30 05:33N 58°16' W 135°35'2019.6
2015-Jul-30 04:34N 58°12' W 134°59'42 2.3
2015-Jul-29 10:32N 58°53' W 135°12'1313.5
2015-Jul-29 09:33N 58°41' W 135°03'29 1.2
2015-Jul-28 09:18N 58°15' W 134°40'4 5.1
2015-Jul-28 08:33N 58°18' W 134°44'6 5.8
2015-Jul-28 07:33N 58°22' W 134°52'5 5.3
2015-Jul-28 06:33N 58°25' W 135°00'7 6.8
2015-Jul-28 05:33N 58°18' W 134°60'7 7.4
2015-Jul-28 04:33N 58°11' W 135°01'7 6.8
2015-Jul-28 03:33N 58°09' W 135°13'7 6.6
2015-Jul-28 02:33N 58°09' W 135°25'2 0.7
2015-Jul-27 23:30N 58°08' W 135°28'  
2015-Jul-25 15:33N 51°02' W 127°58'1312.9
2015-Jul-25 14:33N 50°55' W 127°41'1414.2
2015-Jul-25 13:33N 50°48' W 127°21'1414.1
2015-Jul-25 12:33N 50°43' W 127°00'8113.3
2015-Jul-25 06:28N 50°00' W 125°12'1314.7
2015-Jul-25 05:33N 49°51' W 124°58'1515.0
2015-Jul-25 04:33N 49°40' W 124°41'1514.7
2015-Jul-25 03:33N 49°30' W 124°25'1615.7
2015-Jul-25 02:33N 49°22' W 124°04'1616.0
2015-Jul-25 01:33N 49°20' W 123°40'1616.1
2015-Jul-25 00:33N 49°19' W 123°15'6 5.9
2015-Jul-24 23:33N 49°17' W 123°06'0 0.0
2015-Jul-24 22:33N 49°17' W 123°06'0 0.0
2015-Jul-24 21:33N 49°17' W 123°06'0 0.0
2015-Jul-24 20:33N 49°17' W 123°06'0 0.0
2015-Jul-24 19:33N 49°17' W 123°06'0 0.0
2015-Jul-24 18:33N 49°17' W 123°06'0 0.0
2015-Jul-24 17:33N 49°17' W 123°06'0 0.0
2015-Jul-24 16:34N 49°17' W 123°06'0 0.0
2015-Jul-24 15:33N 49°17' W 123°06'0 0.0
2015-Jul-24 14:33N 49°17' W 123°06'2 1.8
2015-Jul-24 13:33N 49°19' W 123°08'1212.0
2015-Jul-24 12:33N 49°18' W 123°27'1312.6
2015-Jul-24 11:33N 49°19' W 123°46'1212.4
2015-Jul-24 10:33N 49°22' W 124°05'1212.4
2015-Jul-24 09:33N 49°27' W 124°21'1312.7
2015-Jul-24 08:33N 49°36' W 124°35'1312.8
2015-Jul-24 07:33N 49°45' W 124°50'1312.6
2015-Jul-24 06:33N 49°54' W 125°04'1212.1
2015-Jul-24 05:33N 50°04' W 125°15'1413.8
2015-Jul-24 04:33N 50°16' W 125°24'6716.8
2015-Jul-24 00:33N 50°43' W 127°01'1818.3
2015-Jul-23 23:33N 50°50' W 127°27'1616.1
2015-Jul-23 22:33N 50°59' W 127°49'  
2015-Jul-21 13:33N 58°09' W 135°21'21 0.7
2015-Jul-20 07:33N 58°21' W 134°46'  
Track history (hours):
 
Tides and Currents Weather Stations Pressure Air Temp Water Temp Dewpoint Dewpoint Depression Visibility Wind Speed Wind Dir Waves Ship Positions

Radiance Of The Seas

Operator: Royal Caribbean Cruises Ltd

Last reported at 2015-Jul-30 06:24 UTC. Time now 2015-Jul-30 22:55 UTC.
Position N 58°19' W 136°09'.

Type: Passenger vessel. MMSI: 311319000.

Date/timePositionNaut miles runAvg speedWind from/ knotsBaromVisibWave heightAir tempDewpointWater temp
2015-Jul-30 06:24N 58°19' W 136°09'1821.2
2015-Jul-30 05:33N 58°16' W 135°35'2019.6
2015-Jul-30 04:34N 58°12' W 134°59'42 2.3
2015-Jul-29 10:32N 58°53' W 135°12'1313.5
2015-Jul-29 09:33N 58°41' W 135°03'29 1.2
2015-Jul-28 09:18N 58°15' W 134°40'4 5.1
2015-Jul-28 08:33N 58°18' W 134°44'6 5.8
2015-Jul-28 07:33N 58°22' W 134°52'5 5.3
2015-Jul-28 06:33N 58°25' W 135°00'7 6.8
2015-Jul-28 05:33N 58°18' W 134°60'7 7.4
2015-Jul-28 04:33N 58°11' W 135°01'7 6.8
2015-Jul-28 03:33N 58°09' W 135°13'7 6.6
2015-Jul-28 02:33N 58°09' W 135°25'2 0.7
2015-Jul-27 23:30N 58°08' W 135°28'  
2015-Jul-25 15:33N 51°02' W 127°58'1312.9
2015-Jul-25 14:33N 50°55' W 127°41'1414.2
2015-Jul-25 13:33N 50°48' W 127°21'1414.1
2015-Jul-25 12:33N 50°43' W 127°00'8113.3
2015-Jul-25 06:28N 50°00' W 125°12'1314.7
2015-Jul-25 05:33N 49°51' W 124°58'1515.0
2015-Jul-25 04:33N 49°40' W 124°41'1514.7
2015-Jul-25 03:33N 49°30' W 124°25'1615.7
2015-Jul-25 02:33N 49°22' W 124°04'1616.0
2015-Jul-25 01:33N 49°20' W 123°40'1616.1
2015-Jul-25 00:33N 49°19' W 123°15'6 5.9
2015-Jul-24 23:33N 49°17' W 123°06'0 0.0
2015-Jul-24 22:33N 49°17' W 123°06'0 0.0
2015-Jul-24 21:33N 49°17' W 123°06'0 0.0
2015-Jul-24 20:33N 49°17' W 123°06'0 0.0
2015-Jul-24 19:33N 49°17' W 123°06'0 0.0
2015-Jul-24 18:33N 49°17' W 123°06'0 0.0
2015-Jul-24 17:33N 49°17' W 123°06'0 0.0
2015-Jul-24 16:34N 49°17' W 123°06'0 0.0
2015-Jul-24 15:33N 49°17' W 123°06'0 0.0
2015-Jul-24 14:33N 49°17' W 123°06'2 1.8
2015-Jul-24 13:33N 49°19' W 123°08'1212.0
2015-Jul-24 12:33N 49°18' W 123°27'1312.6
2015-Jul-24 11:33N 49°19' W 123°46'1212.4
2015-Jul-24 10:33N 49°22' W 124°05'1212.4
2015-Jul-24 09:33N 49°27' W 124°21'1312.7
2015-Jul-24 08:33N 49°36' W 124°35'1312.8
2015-Jul-24 07:33N 49°45' W 124°50'1312.6
2015-Jul-24 06:33N 49°54' W 125°04'1212.1
2015-Jul-24 05:33N 50°04' W 125°15'1413.8
2015-Jul-24 04:33N 50°16' W 125°24'6716.8
2015-Jul-24 00:33N 50°43' W 127°01'1818.3
2015-Jul-23 23:33N 50°50' W 127°27'1616.1
2015-Jul-23 22:33N 50°59' W 127°49'  
2015-Jul-21 13:33N 58°09' W 135°21'21 0.7
2015-Jul-20 07:33N 58°21' W 134°46'  

Dump ship's entire track history